createdAt,value
2019-05-07T00:00:52.701Z,9.10
2019-05-07T00:03:23.790Z,9.00
2019-05-07T00:05:54.109Z,9.00
2019-05-07T00:08:24.167Z,9.00
2019-05-07T00:10:56.381Z,9.00
2019-05-07T00:13:26.319Z,9.00
2019-05-07T00:15:56.351Z,8.90
2019-05-07T00:18:26.283Z,8.90
2019-05-07T00:20:56.426Z,8.90
2019-05-07T00:23:26.489Z,8.80
2019-05-07T00:25:56.451Z,8.90
2019-05-07T00:28:26.405Z,8.80
2019-05-07T00:30:56.522Z,8.80
2019-05-07T00:33:26.562Z,8.80
2019-05-07T00:36:03.891Z,8.80
2019-05-07T00:38:35.548Z,8.80
2019-05-07T00:41:13.185Z,8.80
2019-05-07T00:43:45.046Z,8.70
2019-05-07T00:46:16.733Z,8.70
2019-05-07T00:48:46.755Z,8.70
2019-05-07T00:51:24.309Z,8.60
2019-05-07T00:53:54.543Z,8.60
2019-05-07T00:56:24.647Z,8.50
2019-05-07T00:58:54.629Z,8.50
2019-05-07T01:01:24.658Z,8.40
2019-05-07T01:03:54.912Z,8.40
2019-05-07T01:06:26.485Z,8.30
2019-05-07T01:08:56.710Z,8.20
2019-05-07T01:11:26.853Z,8.20
2019-05-07T01:13:57.104Z,8.20
2019-05-07T01:16:27.147Z,8.10
2019-05-07T01:18:57.332Z,8.10
2019-05-07T01:21:27.468Z,8.10
2019-05-07T01:23:57.527Z,8.10
2019-05-07T01:26:27.581Z,8.00
2019-05-07T01:29:02.875Z,8.00
2019-05-07T01:31:35.165Z,8.00
2019-05-07T01:34:12.056Z,8.00
2019-05-07T01:36:42.714Z,8.00
2019-05-07T01:39:13.191Z,7.90
2019-05-07T01:41:43.842Z,8.00
2019-05-07T01:44:14.018Z,7.90
2019-05-07T01:46:45.492Z,7.90
2019-05-07T01:49:15.589Z,7.90
2019-05-07T01:51:45.607Z,7.90
2019-05-07T01:54:15.703Z,7.90
2019-05-07T01:56:45.899Z,7.80
2019-05-07T01:59:17.407Z,7.80
2019-05-07T02:01:49.365Z,7.70
2019-05-07T02:04:22.401Z,7.70
2019-05-07T02:07:06.326Z,7.70
2019-05-07T02:09:43.856Z,7.60
2019-05-07T02:12:15.448Z,7.60
2019-05-07T02:14:45.643Z,7.60
2019-05-07T02:17:15.618Z,7.50
2019-05-07T02:19:45.765Z,7.50
2019-05-07T02:22:16.000Z,7.40
2019-05-07T02:24:46.096Z,7.40
2019-05-07T02:27:16.148Z,7.30
2019-05-07T02:29:46.144Z,7.40
2019-05-07T02:32:16.137Z,7.30
2019-05-07T02:34:46.089Z,7.30
2019-05-07T02:37:17.683Z,7.30
2019-05-07T02:39:53.259Z,7.30
2019-05-07T02:42:24.070Z,7.30
2019-05-07T02:45:04.956Z,7.30
2019-05-07T02:47:35.765Z,7.30
2019-05-07T02:50:24.196Z,7.40
2019-05-07T02:53:13.340Z,7.40
2019-05-07T02:55:52.854Z,7.50
2019-05-07T02:58:24.049Z,7.60
2019-05-07T03:00:54.377Z,7.60
2019-05-07T03:03:24.846Z,7.70
2019-05-07T03:05:55.048Z,7.70
2019-05-07T03:08:27.543Z,7.60
2019-05-07T03:10:57.019Z,7.70
2019-05-07T03:13:27.007Z,7.70
2019-05-07T03:15:57.422Z,7.70
2019-05-07T03:18:27.433Z,7.70
2019-05-07T03:20:59.270Z,7.80
2019-05-07T03:23:33.741Z,7.80
2019-05-07T03:26:16.541Z,7.70
2019-05-07T03:28:54.155Z,7.70
2019-05-07T03:31:28.853Z,7.80
2019-05-07T03:34:16.943Z,7.80
2019-05-07T03:36:49.281Z,7.80
2019-05-07T03:39:19.499Z,7.90
2019-05-07T03:41:49.607Z,7.90
2019-05-07T03:44:24.323Z,7.90
2019-05-07T03:47:02.137Z,7.90
2019-05-07T03:49:29.490Z,8.00
2019-05-07T03:51:59.614Z,8.10
2019-05-07T03:54:29.619Z,8.10
2019-05-07T03:57:07.474Z,8.00
2019-05-07T03:59:34.243Z,8.00
2019-05-07T04:02:04.471Z,7.80
2019-05-07T04:04:34.703Z,7.90
2019-05-07T04:07:05.812Z,7.90
2019-05-07T04:09:36.047Z,7.80
2019-05-07T04:12:06.096Z,7.90
2019-05-07T04:14:36.088Z,7.80
2019-05-07T04:17:21.875Z,7.70
2019-05-07T04:19:37.968Z,7.70
2019-05-07T04:22:09.082Z,7.70
2019-05-07T04:24:46.803Z,7.80
2019-05-07T04:27:24.333Z,7.90
2019-05-07T04:29:54.324Z,7.80
2019-05-07T04:32:25.973Z,7.80
2019-05-07T04:35:03.580Z,7.90
2019-05-07T04:37:33.180Z,8.00
2019-05-07T04:40:04.529Z,8.00
2019-05-07T04:42:34.556Z,8.00
2019-05-07T04:45:06.944Z,8.00
2019-05-07T04:47:42.901Z,8.30
2019-05-07T04:50:13.902Z,8.30
2019-05-07T04:52:44.212Z,8.30
2019-05-07T04:55:14.734Z,8.30
2019-05-07T04:57:44.787Z,8.40
2019-05-07T05:00:15.536Z,8.60
2019-05-07T05:02:52.839Z,8.70
2019-05-07T05:05:23.642Z,8.90
2019-05-07T05:07:55.860Z,8.90
2019-05-07T05:10:25.806Z,9.00
2019-05-07T05:12:55.774Z,8.90
2019-05-07T05:15:25.721Z,9.10
2019-05-07T05:17:55.732Z,8.80
2019-05-07T05:20:33.680Z,8.50
2019-05-07T05:23:12.128Z,8.80
2019-05-07T05:25:43.499Z,8.90
2019-05-07T05:28:21.990Z,8.80
2019-05-07T05:30:54.618Z,9.00
2019-05-07T05:33:25.887Z,9.30
2019-05-07T05:35:55.835Z,9.40
2019-05-07T05:38:25.764Z,9.50
2019-05-07T05:40:55.706Z,9.40
2019-05-07T05:43:27.375Z,9.40
2019-05-07T05:46:03.492Z,9.50
2019-05-07T05:48:33.570Z,9.40
2019-05-07T05:51:05.414Z,9.50
2019-05-07T05:53:49.212Z,9.50
2019-05-07T05:56:23.805Z,9.50
2019-05-07T05:59:23.712Z,9.60
2019-05-07T06:01:52.011Z,9.70
2019-05-07T06:04:29.150Z,9.80
2019-05-07T06:07:10.433Z,9.60
2019-05-07T06:09:36.824Z,9.70
2019-05-07T06:12:14.148Z,9.60
2019-05-07T06:14:45.883Z,9.70
2019-05-07T06:17:17.635Z,9.80
2019-05-07T06:19:54.634Z,10.10
2019-05-07T06:22:29.556Z,10.20
2019-05-07T06:25:02.329Z,10.20
2019-05-07T06:27:33.584Z,10.40
2019-05-07T06:30:05.091Z,10.50
2019-05-07T06:32:35.157Z,10.60
2019-05-07T06:35:06.607Z,10.70
2019-05-07T06:37:38.424Z,10.60
2019-05-07T06:40:26.686Z,10.40
2019-05-07T06:42:55.446Z,10.60
2019-05-07T06:45:32.617Z,10.80
2019-05-07T06:48:03.007Z,11.00
2019-05-07T06:50:33.142Z,10.90
2019-05-07T06:53:03.205Z,11.00
2019-05-07T06:55:33.399Z,11.20
2019-05-07T06:58:04.584Z,11.40
2019-05-07T07:00:38.898Z,11.20
2019-05-07T07:03:25.894Z,11.20
2019-05-07T07:06:03.378Z,11.10
2019-05-07T07:08:52.576Z,11.20
2019-05-07T07:11:24.147Z,11.20
2019-05-07T07:13:54.065Z,11.20
2019-05-07T07:16:24.066Z,11.30
2019-05-07T07:18:55.786Z,11.20
2019-05-07T07:21:25.911Z,11.40
2019-05-07T07:23:55.896Z,11.50
2019-05-07T07:26:25.889Z,11.60
2019-05-07T07:28:55.874Z,11.90
2019-05-07T07:31:27.446Z,11.90
2019-05-07T07:34:02.232Z,12.00
2019-05-07T07:36:34.006Z,11.80
2019-05-07T07:39:06.074Z,12.00
2019-05-07T07:41:42.129Z,12.00
2019-05-07T07:44:13.351Z,12.50
2019-05-07T07:46:45.240Z,12.40
2019-05-07T07:49:15.406Z,12.50
2019-05-07T07:51:45.942Z,13.00
2019-05-07T07:54:17.107Z,13.00
2019-05-07T07:56:53.897Z,12.80
2019-05-07T07:59:35.824Z,13.40
2019-05-07T08:02:23.840Z,13.30
2019-05-07T08:04:56.750Z,13.20
2019-05-07T08:07:26.827Z,13.60
2019-05-07T08:10:07.187Z,13.50
2019-05-07T08:12:37.133Z,13.10
2019-05-07T08:15:16.735Z,13.60
2019-05-07T08:17:41.889Z,13.80
2019-05-07T08:20:16.099Z,13.50
2019-05-07T08:22:46.255Z,13.60
2019-05-07T08:25:26.344Z,13.40
2019-05-07T08:27:58.203Z,13.80
2019-05-07T08:30:32.626Z,14.40
2019-05-07T08:33:04.240Z,14.60
2019-05-07T08:35:36.659Z,14.70
2019-05-07T08:38:06.595Z,14.60
2019-05-07T08:40:37.746Z,14.90
2019-05-07T08:43:08.734Z,15.00
2019-05-07T08:45:56.568Z,14.10
2019-05-07T08:48:47.630Z,13.30
2019-05-07T08:51:17.618Z,13.10
2019-05-07T08:53:49.248Z,13.20
2019-05-07T08:56:19.223Z,12.60
2019-05-07T08:58:52.654Z,12.60
2019-05-07T09:01:22.631Z,12.90
2019-05-07T09:03:52.651Z,13.00
2019-05-07T09:06:24.287Z,13.20
2019-05-07T09:08:54.219Z,13.30
2019-05-07T09:11:24.327Z,13.70
2019-05-07T09:13:54.439Z,14.30
2019-05-07T09:16:24.469Z,14.10
2019-05-07T09:18:54.479Z,13.50
2019-05-07T09:21:24.413Z,13.70
2019-05-07T09:23:54.405Z,13.60
2019-05-07T09:26:28.413Z,13.50
2019-05-07T09:29:00.032Z,13.70
2019-05-07T09:31:34.733Z,13.80
2019-05-07T09:34:04.843Z,13.60
2019-05-07T09:36:39.178Z,13.60
2019-05-07T09:39:09.111Z,13.80
2019-05-07T09:41:39.028Z,13.90
2019-05-07T09:44:12.082Z,13.70
2019-05-07T09:46:43.053Z,13.40
2019-05-07T09:49:13.735Z,13.60
2019-05-07T09:51:43.663Z,13.80
2019-05-07T09:54:13.611Z,14.20
2019-05-07T09:56:43.642Z,15.00
2019-05-07T09:59:13.567Z,15.50
2019-05-07T10:01:43.892Z,15.50
2019-05-07T10:04:14.090Z,15.30
2019-05-07T10:06:44.092Z,14.70
2019-05-07T10:09:14.119Z,14.00
2019-05-07T10:11:52.451Z,13.80
2019-05-07T10:14:22.617Z,13.30
2019-05-07T10:16:57.296Z,13.40
2019-05-07T10:19:27.236Z,13.70
2019-05-07T10:21:57.145Z,13.90
2019-05-07T10:24:27.104Z,14.10
2019-05-07T10:26:57.099Z,15.00
2019-05-07T10:29:27.112Z,14.80
2019-05-07T10:31:57.120Z,14.40
2019-05-07T10:34:27.207Z,14.40
2019-05-07T10:36:57.134Z,14.80
2019-05-07T10:39:29.966Z,16.10
2019-05-07T10:42:01.807Z,15.60
2019-05-07T10:44:33.326Z,15.80
2019-05-07T10:47:22.268Z,17.20
2019-05-07T10:49:53.943Z,18.60
2019-05-07T10:52:23.899Z,19.30
2019-05-07T10:54:59.706Z,17.30
2019-05-07T10:57:25.553Z,16.70
2019-05-07T10:59:55.584Z,16.30
2019-05-07T11:02:27.185Z,17.20
2019-05-07T11:04:57.190Z,18.70
2019-05-07T11:07:27.160Z,17.70
2019-05-07T11:09:57.199Z,16.80
2019-05-07T11:12:27.143Z,16.20
2019-05-07T11:14:57.257Z,15.40
2019-05-07T11:17:32.678Z,15.20
2019-05-07T11:20:03.375Z,15.10
2019-05-07T11:22:33.459Z,15.10
2019-05-07T11:25:04.859Z,14.90
2019-05-07T11:27:34.900Z,15.80
2019-05-07T11:30:08.442Z,18.00
2019-05-07T11:32:39.208Z,16.70
2019-05-07T11:35:11.790Z,15.50
2019-05-07T11:37:44.392Z,15.00
2019-05-07T11:40:15.550Z,14.50
2019-05-07T11:42:51.607Z,14.40
2019-05-07T11:45:23.258Z,14.40
2019-05-07T11:47:53.147Z,14.40
2019-05-07T11:50:27.419Z,14.30
2019-05-07T11:53:05.373Z,14.10
2019-05-07T11:55:35.388Z,14.20
2019-05-07T11:58:05.486Z,14.40
2019-05-07T12:00:37.235Z,14.60
2019-05-07T12:03:07.162Z,14.80
2019-05-07T12:05:37.177Z,14.50
2019-05-07T12:08:07.458Z,14.50
2019-05-07T12:10:37.575Z,14.60
2019-05-07T12:13:07.492Z,14.50
2019-05-07T12:15:38.166Z,14.90
2019-05-07T12:18:08.219Z,15.10
2019-05-07T12:20:38.239Z,16.30
2019-05-07T12:23:08.291Z,15.50
2019-05-07T12:25:38.324Z,15.00
2019-05-07T12:28:08.297Z,14.70
2019-05-07T12:30:39.954Z,14.40
2019-05-07T12:33:24.407Z,14.30
2019-05-07T12:35:54.376Z,14.30
2019-05-07T12:38:24.374Z,14.50
2019-05-07T12:40:54.397Z,14.60
2019-05-07T12:43:24.342Z,14.60
2019-05-07T12:45:54.577Z,14.60
2019-05-07T12:48:24.535Z,14.50
2019-05-07T12:50:54.542Z,14.50
2019-05-07T12:53:28.993Z,14.40
2019-05-07T12:56:02.177Z,16.00
2019-05-07T12:58:32.404Z,17.50
2019-05-07T13:01:06.825Z,16.00
2019-05-07T13:03:38.496Z,15.20
2019-05-07T13:06:11.552Z,14.80
2019-05-07T13:08:41.966Z,14.90
2019-05-07T13:11:13.327Z,14.90
2019-05-07T13:13:43.405Z,14.80
2019-05-07T13:16:13.530Z,14.60
2019-05-07T13:18:43.567Z,14.60
2019-05-07T13:21:13.492Z,14.50
2019-05-07T13:23:43.424Z,14.50
2019-05-07T13:26:13.379Z,14.30
2019-05-07T13:28:44.377Z,14.40
2019-05-07T13:31:15.159Z,14.50
2019-05-07T13:33:46.515Z,14.70
2019-05-07T13:36:16.561Z,14.40
2019-05-07T13:38:54.661Z,14.20
2019-05-07T13:41:44.581Z,14.20
2019-05-07T13:44:22.915Z,14.40
2019-05-07T13:46:55.247Z,14.50
2019-05-07T13:49:25.436Z,14.40
2019-05-07T13:52:03.472Z,14.40
2019-05-07T13:54:27.366Z,14.00
2019-05-07T13:56:57.323Z,13.80
2019-05-07T13:59:27.403Z,14.10
2019-05-07T14:02:02.749Z,14.20
2019-05-07T14:04:33.568Z,14.20
2019-05-07T14:07:03.633Z,14.30
2019-05-07T14:09:33.728Z,14.30
2019-05-07T14:12:03.812Z,14.40
2019-05-07T14:14:34.599Z,14.20
2019-05-07T14:17:04.848Z,14.00
2019-05-07T14:19:34.915Z,14.10
2019-05-07T14:22:15.363Z,14.00
2019-05-07T14:24:36.674Z,14.10
2019-05-07T14:27:06.820Z,14.10
2019-05-07T14:29:36.855Z,14.00
2019-05-07T14:32:08.515Z,14.20
2019-05-07T14:34:56.894Z,14.30
2019-05-07T14:37:28.506Z,14.00
2019-05-07T14:39:58.560Z,14.10
2019-05-07T14:42:32.704Z,14.00
2019-05-07T14:45:02.005Z,14.20
2019-05-07T14:47:31.942Z,14.10
2019-05-07T14:50:02.268Z,14.00
2019-05-07T14:52:35.584Z,14.20
2019-05-07T14:55:05.373Z,14.40
2019-05-07T14:57:36.138Z,14.80
2019-05-07T15:00:07.570Z,14.90
2019-05-07T15:02:37.967Z,15.00
2019-05-07T15:05:08.329Z,15.10
2019-05-07T15:07:38.412Z,15.40
2019-05-07T15:10:08.581Z,16.00
2019-05-07T15:12:38.687Z,16.00
2019-05-07T15:15:09.352Z,17.50
2019-05-07T15:17:42.000Z,18.60
2019-05-07T15:20:12.195Z,17.40
2019-05-07T15:22:49.849Z,17.20
2019-05-07T15:25:18.582Z,19.50
2019-05-07T15:27:50.058Z,18.90
2019-05-07T15:30:21.946Z,17.80
2019-05-07T15:32:52.238Z,17.10
2019-05-07T15:35:22.938Z,16.30
2019-05-07T15:37:53.022Z,16.10
2019-05-07T15:40:23.094Z,15.30
2019-05-07T15:42:54.192Z,15.30
2019-05-07T15:45:24.159Z,14.80
2019-05-07T15:47:55.731Z,14.90
2019-05-07T15:50:27.388Z,14.80
2019-05-07T15:53:01.907Z,14.90
2019-05-07T15:55:31.884Z,14.80
2019-05-07T15:58:02.777Z,14.80
2019-05-07T16:00:34.703Z,14.60
2019-05-07T16:03:24.347Z,14.10
2019-05-07T16:05:54.339Z,14.20
2019-05-07T16:08:26.067Z,14.60
2019-05-07T16:10:56.028Z,15.00
2019-05-07T16:13:33.663Z,15.10
2019-05-07T16:16:03.593Z,14.90
2019-05-07T16:18:35.198Z,14.80
2019-05-07T16:21:05.284Z,14.70
2019-05-07T16:23:35.448Z,14.60
2019-05-07T16:26:05.530Z,14.70
2019-05-07T16:28:35.456Z,14.80
2019-05-07T16:31:05.463Z,14.70
2019-05-07T16:33:35.477Z,14.90
2019-05-07T16:36:05.736Z,15.20
2019-05-07T16:38:35.747Z,15.00
2019-05-07T16:41:05.931Z,15.30
2019-05-07T16:43:36.144Z,15.90
2019-05-07T16:46:06.551Z,16.00
2019-05-07T16:48:36.544Z,15.70
2019-05-07T16:51:06.671Z,16.10
2019-05-07T16:53:36.786Z,16.20
2019-05-07T16:56:07.148Z,15.80
2019-05-07T16:58:38.863Z,15.20
2019-05-07T17:01:10.534Z,15.00
2019-05-07T17:03:42.746Z,14.70
2019-05-07T17:06:12.905Z,14.40
2019-05-07T17:08:47.347Z,13.90
2019-05-07T17:11:17.444Z,13.70
2019-05-07T17:13:47.570Z,13.80
2019-05-07T17:16:17.662Z,13.80
2019-05-07T17:18:47.601Z,13.60
2019-05-07T17:21:17.822Z,13.30
2019-05-07T17:23:48.042Z,13.00
2019-05-07T17:26:18.125Z,13.00
2019-05-07T17:28:48.178Z,12.90
2019-05-07T17:31:18.243Z,12.80
2019-05-07T17:33:48.297Z,12.90
2019-05-07T17:36:18.548Z,12.80
2019-05-07T17:38:48.511Z,12.90
2019-05-07T17:41:24.049Z,12.80
2019-05-07T17:43:51.988Z,12.70
2019-05-07T17:46:21.933Z,12.70
2019-05-07T17:48:52.905Z,12.50
2019-05-07T17:51:42.524Z,12.40
2019-05-07T17:54:13.472Z,12.30
2019-05-07T17:56:44.583Z,12.20
2019-05-07T17:59:17.387Z,12.10
2019-05-07T18:02:05.386Z,12.00
2019-05-07T18:04:50.591Z,12.00
2019-05-07T18:07:08.670Z,11.90
2019-05-07T18:09:38.692Z,11.80
2019-05-07T18:12:08.687Z,11.80
2019-05-07T18:14:38.732Z,11.70
2019-05-07T18:17:26.547Z,11.70
2019-05-07T18:19:56.533Z,11.60
2019-05-07T18:22:26.520Z,11.70
2019-05-07T18:24:56.486Z,11.70
2019-05-07T18:27:26.659Z,11.60
2019-05-07T18:29:56.659Z,11.60
2019-05-07T18:32:28.339Z,11.40
2019-05-07T18:34:58.389Z,11.60
2019-05-07T18:37:28.599Z,11.60
2019-05-07T18:39:58.547Z,11.50
2019-05-07T18:42:28.691Z,11.60
2019-05-07T18:44:58.687Z,11.60
2019-05-07T18:47:28.707Z,11.70
2019-05-07T18:49:58.728Z,11.50
2019-05-07T18:52:28.906Z,11.60
2019-05-07T18:54:58.836Z,11.60
2019-05-07T18:57:28.816Z,11.60
2019-05-07T18:59:58.820Z,11.60
2019-05-07T19:02:28.777Z,11.60
2019-05-07T19:04:58.765Z,11.50
2019-05-07T19:07:28.765Z,11.50
2019-05-07T19:09:58.778Z,11.50
2019-05-07T19:12:32.610Z,11.40
2019-05-07T19:15:02.924Z,11.40
2019-05-07T19:17:33.478Z,11.40
2019-05-07T19:20:03.769Z,11.40
2019-05-07T19:22:33.872Z,11.40
2019-05-07T19:25:04.068Z,11.30
2019-05-07T19:27:34.031Z,11.30
2019-05-07T19:30:04.514Z,11.30
2019-05-07T19:32:36.144Z,11.30
2019-05-07T19:35:06.369Z,11.20
2019-05-07T19:37:36.490Z,11.10
2019-05-07T19:40:08.074Z,11.10
2019-05-07T19:42:38.145Z,11.00
2019-05-07T19:45:08.284Z,10.90
2019-05-07T19:47:38.305Z,10.90
2019-05-07T19:50:08.309Z,10.90
2019-05-07T19:52:38.327Z,10.90
2019-05-07T19:55:09.496Z,10.90
2019-05-07T19:57:47.262Z,10.80
2019-05-07T20:00:18.916Z,10.70
2019-05-07T20:02:52.547Z,10.70
2019-05-07T20:05:22.314Z,10.60
2019-05-07T20:07:55.541Z,10.70
2019-05-07T20:10:25.719Z,10.60
2019-05-07T20:12:55.797Z,10.60
2019-05-07T20:15:25.847Z,10.60
2019-05-07T20:17:55.910Z,10.50
2019-05-07T20:20:25.851Z,10.40
2019-05-07T20:22:55.963Z,10.40
2019-05-07T20:25:26.018Z,10.40
2019-05-07T20:27:56.052Z,10.40
2019-05-07T20:30:26.030Z,10.30
2019-05-07T20:32:56.124Z,10.10
2019-05-07T20:35:26.327Z,9.90
2019-05-07T20:37:56.658Z,9.80
2019-05-07T20:40:26.787Z,9.80
2019-05-07T20:42:56.750Z,9.90
2019-05-07T20:45:26.771Z,9.90
2019-05-07T20:47:56.826Z,9.80
2019-05-07T20:50:26.841Z,9.70
2019-05-07T20:52:56.795Z,9.60
2019-05-07T20:55:34.428Z,9.50
2019-05-07T20:58:04.493Z,9.40
2019-05-07T21:00:34.683Z,9.40
2019-05-07T21:03:19.416Z,9.40
2019-05-07T21:05:52.977Z,9.30
2019-05-07T21:08:24.246Z,9.20
2019-05-07T21:10:54.203Z,9.30
2019-05-07T21:13:30.815Z,9.20
2019-05-07T21:15:55.850Z,9.40
2019-05-07T21:18:25.876Z,9.40
2019-05-07T21:20:55.879Z,9.40
2019-05-07T21:23:25.905Z,9.30
2019-05-07T21:25:56.314Z,9.30
2019-05-07T21:28:26.567Z,9.30
2019-05-07T21:30:57.104Z,9.30
2019-05-07T21:33:27.119Z,9.40
2019-05-07T21:35:57.091Z,9.40
2019-05-07T21:38:27.355Z,9.40
2019-05-07T21:40:57.396Z,9.50
2019-05-07T21:43:27.394Z,9.40
2019-05-07T21:45:57.433Z,9.40
2019-05-07T21:48:27.502Z,9.40
2019-05-07T21:50:57.536Z,9.40
2019-05-07T21:53:47.206Z,9.50
2019-05-07T21:56:27.610Z,9.40
2019-05-07T21:58:59.199Z,9.60
2019-05-07T22:01:43.398Z,9.50
2019-05-07T22:04:12.674Z,9.60
2019-05-07T22:06:45.395Z,9.50
2019-05-07T22:09:16.284Z,9.40
2019-05-07T22:11:46.492Z,9.40
2019-05-07T22:14:16.438Z,9.40
2019-05-07T22:16:46.394Z,9.40
2019-05-07T22:19:16.339Z,9.30
2019-05-07T22:21:48.029Z,9.30
2019-05-07T22:24:18.054Z,9.30
2019-05-07T22:26:48.183Z,9.50
2019-05-07T22:29:19.272Z,9.50
2019-05-07T22:31:56.676Z,9.30
2019-05-07T22:34:28.339Z,9.30
2019-05-07T22:36:58.370Z,9.20
2019-05-07T22:39:35.668Z,9.20
2019-05-07T22:42:07.321Z,9.20
2019-05-07T22:44:37.338Z,9.30
2019-05-07T22:47:19.196Z,9.20
2019-05-07T22:49:49.648Z,9.20
2019-05-07T22:52:22.234Z,9.10
2019-05-07T22:54:51.418Z,9.20
2019-05-07T22:57:38.206Z,9.10
2019-05-07T23:00:12.306Z,9.10
2019-05-07T23:02:43.971Z,9.00
2019-05-07T23:05:15.623Z,9.00
2019-05-07T23:07:45.537Z,9.00
2019-05-07T23:10:16.567Z,8.80
2019-05-07T23:12:46.579Z,9.00
2019-05-07T23:15:16.612Z,9.00
2019-05-07T23:17:46.552Z,9.00
2019-05-07T23:20:16.645Z,8.90
2019-05-07T23:22:46.629Z,8.80
2019-05-07T23:25:16.635Z,8.60
2019-05-07T23:27:46.678Z,8.40
2019-05-07T23:30:16.758Z,8.40
2019-05-07T23:32:46.695Z,8.30
2019-05-07T23:35:16.682Z,8.30
2019-05-07T23:37:46.673Z,8.30
2019-05-07T23:40:36.025Z,8.30
2019-05-07T23:43:19.743Z,8.30
2019-05-07T23:45:49.691Z,8.20
2019-05-07T23:48:19.638Z,8.20
2019-05-07T23:50:49.595Z,8.10
2019-05-07T23:53:19.519Z,8.00
2019-05-07T23:55:49.493Z,7.90
2019-05-07T23:58:19.494Z,8.00
